createdAt,value
2022-08-14T00:01:02.420Z,3.60
2022-08-14T00:03:37.159Z,3.50
2022-08-14T00:06:25.435Z,3.50
2022-08-14T00:08:51.005Z,3.90
2022-08-14T00:11:17.636Z,3.80
2022-08-14T00:13:46.539Z,3.80
2022-08-14T00:16:41.070Z,3.90
2022-08-14T00:19:19.182Z,3.80
2022-08-14T00:21:47.902Z,3.47
2022-08-14T00:24:28.384Z,3.50
2022-08-14T00:26:57.065Z,4.00
2022-08-14T00:29:25.491Z,4.00
2022-08-14T00:31:56.023Z,4.22
2022-08-14T00:34:35.355Z,3.83
2022-08-14T00:37:05.502Z,3.90
2022-08-14T00:39:32.832Z,3.90
2022-08-14T00:41:59.397Z,3.78
2022-08-14T00:44:32.577Z,3.67
2022-08-14T00:47:01.398Z,4.15
2022-08-14T00:49:30.372Z,4.00
2022-08-14T00:52:05.385Z,4.10
2022-08-14T00:54:34.039Z,4.18
2022-08-14T00:57:02.059Z,4.18
2022-08-14T00:59:28.954Z,4.63
2022-08-14T01:01:58.215Z,4.40
2022-08-14T01:04:38.465Z,4.03
2022-08-14T01:07:20.606Z,4.13
2022-08-14T01:09:49.809Z,3.95
2022-08-14T01:12:27.267Z,4.00
2022-08-14T01:14:58.733Z,4.00
2022-08-14T01:17:50.618Z,3.83
2022-08-14T01:20:39.444Z,4.70
2022-08-14T01:23:10.329Z,4.20
2022-08-14T01:25:44.025Z,3.60
2022-08-14T01:28:12.577Z,4.20
2022-08-14T01:30:59.341Z,4.10
2022-08-14T01:33:29.243Z,4.15
2022-08-14T01:36:03.830Z,4.30
2022-08-14T01:38:37.222Z,4.22
2022-08-14T01:41:16.344Z,4.03
2022-08-14T01:43:56.542Z,4.43
2022-08-14T01:46:25.361Z,4.72
2022-08-14T01:49:02.275Z,4.20
2022-08-14T01:51:31.383Z,4.22
2022-08-14T01:54:02.495Z,4.13
2022-08-14T01:56:40.892Z,4.78
2022-08-14T01:59:18.804Z,4.35
2022-08-14T02:01:51.437Z,4.53
2022-08-14T02:04:54.440Z,4.15
2022-08-14T02:07:17.391Z,4.07
2022-08-14T02:10:01.285Z,4.88
2022-08-14T02:12:29.325Z,4.07
2022-08-14T02:15:00.565Z,4.47
2022-08-14T02:17:29.024Z,4.57
2022-08-14T02:19:57.437Z,4.57
2022-08-14T02:22:28.794Z,4.47
2022-08-14T02:25:00.796Z,4.85
2022-08-14T02:28:25.655Z,4.55
2022-08-14T02:30:15.840Z,4.88
2022-08-14T02:32:43.233Z,4.80
2022-08-14T02:35:18.592Z,4.65
2022-08-14T02:37:49.183Z,4.97
2022-08-14T02:40:18.592Z,4.63
2022-08-14T02:42:55.316Z,4.35
2022-08-14T02:45:38.765Z,4.38
2022-08-14T02:49:02.972Z,4.38
2022-08-14T02:51:00.498Z,4.65
2022-08-14T02:53:29.478Z,4.63
2022-08-14T02:55:56.763Z,4.93
2022-08-14T02:58:31.101Z,5.00
2022-08-14T03:00:58.887Z,4.57
2022-08-14T03:03:25.903Z,4.25
2022-08-14T03:05:54.292Z,5.07
2022-08-14T03:08:22.160Z,4.93
2022-08-14T03:10:50.214Z,5.47
2022-08-14T03:13:21.187Z,5.40
2022-08-14T03:15:56.226Z,5.43
2022-08-14T03:18:31.472Z,4.68
2022-08-14T03:21:05.029Z,5.20
2022-08-14T03:23:37.751Z,5.13
2022-08-14T03:26:07.005Z,5.32
2022-08-14T03:28:36.818Z,5.55
2022-08-14T03:31:08.436Z,5.72
2022-08-14T03:33:40.978Z,5.32
2022-08-14T03:37:37.678Z,5.75
2022-08-14T03:39:15.648Z,5.88
2022-08-14T03:41:46.239Z,5.35
2022-08-14T03:45:25.091Z,4.85
2022-08-14T03:46:59.378Z,5.32
2022-08-14T03:49:30.050Z,5.47
2022-08-14T03:52:00.611Z,5.50
2022-08-14T03:54:28.110Z,5.20
2022-08-14T03:56:54.808Z,5.55
2022-08-14T03:59:21.357Z,5.47
2022-08-14T04:01:58.128Z,5.80
2022-08-14T04:04:33.485Z,5.35
2022-08-14T04:07:00.663Z,5.53
2022-08-14T04:09:29.163Z,5.78
2022-08-14T04:11:55.974Z,5.97
2022-08-14T04:14:23.053Z,5.80
2022-08-14T04:16:50.192Z,6.20
2022-08-14T04:19:20.435Z,5.38
2022-08-14T04:22:03.666Z,5.63
2022-08-14T04:24:37.643Z,5.68
2022-08-14T04:27:09.838Z,5.50
2022-08-14T04:33:00.313Z,5.88
2022-08-14T04:34:54.877Z,6.32
2022-08-14T04:37:42.552Z,6.15
2022-08-14T04:40:28.571Z,6.22
2022-08-14T04:43:17.042Z,6.47
2022-08-14T04:45:44.068Z,5.70
2022-08-14T04:48:36.626Z,5.63
2022-08-14T04:51:04.173Z,5.97
2022-08-14T04:53:35.605Z,6.15
2022-08-14T04:56:10.655Z,6.05
2022-08-14T04:59:02.151Z,5.97
2022-08-14T05:01:39.587Z,6.43
2022-08-14T05:04:07.157Z,6.13
2022-08-14T05:06:35.129Z,6.18
2022-08-14T05:09:07.130Z,6.13
2022-08-14T05:11:37.090Z,6.03
2022-08-14T05:14:33.884Z,5.95
2022-08-14T05:16:52.100Z,5.82
2022-08-14T05:19:27.021Z,6.15
2022-08-14T05:22:15.617Z,6.05
2022-08-14T05:24:51.866Z,6.38
2022-08-14T05:27:23.320Z,6.47
2022-08-14T05:29:55.411Z,6.20
2022-08-14T05:32:27.699Z,6.55
2022-08-14T05:34:57.760Z,6.43
2022-08-14T05:37:24.308Z,6.63
2022-08-14T05:39:52.877Z,6.55
2022-08-14T05:42:21.356Z,6.50
2022-08-14T05:44:48.361Z,6.25
2022-08-14T05:47:15.958Z,6.53
2022-08-14T05:49:45.915Z,6.10
2022-08-14T05:52:12.773Z,6.55
2022-08-14T05:54:44.464Z,6.80
2022-08-14T05:57:10.916Z,5.70
2022-08-14T05:59:39.589Z,5.97
2022-08-14T06:02:11.073Z,6.40
2022-08-14T06:04:38.673Z,6.85
2022-08-14T06:07:05.605Z,6.32
2022-08-14T06:09:35.739Z,6.88
2022-08-14T06:12:11.156Z,6.10
2022-08-14T06:14:38.720Z,6.90
2022-08-14T06:17:05.560Z,6.38
2022-08-14T06:19:31.944Z,6.93
2022-08-14T06:21:59.203Z,6.35
2022-08-14T06:24:26.668Z,6.53
2022-08-14T06:26:54.205Z,6.10
2022-08-14T06:29:33.399Z,6.95
2022-08-14T06:35:11.453Z,6.60
2022-08-14T06:37:49.885Z,6.97
2022-08-14T06:40:27.269Z,6.37
2022-08-14T06:43:03.720Z,6.90
2022-08-14T06:45:31.450Z,6.90
2022-08-14T06:47:59.093Z,7.10
2022-08-14T06:50:28.695Z,7.30
2022-08-14T06:55:27.874Z,6.90
2022-08-14T06:57:56.506Z,6.78
2022-08-14T07:00:30.395Z,6.78
2022-08-14T07:03:17.107Z,7.50
2022-08-14T07:05:55.979Z,6.60
2022-08-14T07:08:31.814Z,7.35
2022-08-14T07:11:03.903Z,6.82
2022-08-14T07:13:31.361Z,6.53
2022-08-14T07:16:00.604Z,6.13
2022-08-14T07:18:30.742Z,6.10
2022-08-14T07:20:59.484Z,6.85
2022-08-14T07:23:26.501Z,6.53
2022-08-14T07:25:58.294Z,6.40
2022-08-14T07:28:32.909Z,6.45
2022-08-14T07:31:05.098Z,6.30
2022-08-14T07:33:36.668Z,6.15
2022-08-14T07:38:38.074Z,6.63
2022-08-14T07:41:06.896Z,6.95
2022-08-14T07:46:21.336Z,5.63
2022-08-14T07:48:56.733Z,6.35
2022-08-14T07:51:23.415Z,6.10
2022-08-14T07:53:50.298Z,5.82
2022-08-14T07:56:44.332Z,5.55
2022-08-14T07:59:10.376Z,5.97
2022-08-14T08:01:40.491Z,5.05
2022-08-14T08:04:24.284Z,5.10
2022-08-14T08:06:52.930Z,5.65
2022-08-14T08:09:24.537Z,5.90
2022-08-14T08:12:01.163Z,5.40
2022-08-14T08:14:56.948Z,5.68
2022-08-14T08:17:23.364Z,5.68
2022-08-14T08:19:51.677Z,5.25
2022-08-14T08:22:19.102Z,5.10
2022-08-14T08:24:46.083Z,5.57
2022-08-14T08:27:17.857Z,5.53
2022-08-14T08:29:51.115Z,5.15
2022-08-14T08:32:18.420Z,5.68
2022-08-14T08:34:46.583Z,5.60
2022-08-14T08:37:14.567Z,5.45
2022-08-14T08:40:01.362Z,5.45
2022-08-14T08:42:31.649Z,5.25
2022-08-14T08:45:06.508Z,5.60
2022-08-14T08:47:41.973Z,5.20
2022-08-14T08:50:31.372Z,5.55
2022-08-14T08:53:11.933Z,5.55
2022-08-14T08:55:43.882Z,5.43
2022-08-14T08:58:20.085Z,5.30
2022-08-14T09:03:29.644Z,5.65
2022-08-14T09:06:04.037Z,5.63
2022-08-14T09:08:49.649Z,5.88
2022-08-14T09:11:21.175Z,5.47
2022-08-14T09:13:51.937Z,5.47
2022-08-14T09:16:26.085Z,4.60
2022-08-14T09:18:54.050Z,5.30
2022-08-14T09:21:24.249Z,5.40
2022-08-14T09:24:30.183Z,5.28
2022-08-14T09:26:41.777Z,5.13
2022-08-14T09:29:09.802Z,5.28
2022-08-14T09:31:43.141Z,4.90
2022-08-14T09:34:28.983Z,5.35
2022-08-14T09:37:23.420Z,5.18
2022-08-14T09:40:20.674Z,4.75
2022-08-14T09:43:11.048Z,5.10
2022-08-14T09:45:52.821Z,4.82
2022-08-14T09:48:29.367Z,4.60
2022-08-14T09:54:18.145Z,4.85
2022-08-14T09:56:56.615Z,4.47
2022-08-14T09:59:28.450Z,4.57
2022-08-14T10:01:59.508Z,4.93
2022-08-14T10:04:33.549Z,4.70
2022-08-14T10:07:05.033Z,4.60
2022-08-14T10:09:33.590Z,4.38
2022-08-14T10:12:04.681Z,4.28
2022-08-14T10:14:36.337Z,4.60
2022-08-14T10:17:06.310Z,4.47
2022-08-14T10:19:36.405Z,4.47
2022-08-14T10:23:15.574Z,4.32
2022-08-14T10:24:57.335Z,4.72
2022-08-14T10:27:27.043Z,4.70
2022-08-14T10:29:58.306Z,4.50
2022-08-14T10:32:28.831Z,4.10
2022-08-14T10:35:13.800Z,4.30
2022-08-14T10:37:52.266Z,4.55
2022-08-14T10:40:52.213Z,3.72
2022-08-14T10:43:26.131Z,3.95
2022-08-14T10:46:03.883Z,3.97
2022-08-14T10:49:05.225Z,3.90
2022-08-14T10:51:39.796Z,4.07
2022-08-14T10:54:16.891Z,4.05
2022-08-14T10:57:20.071Z,3.97
2022-08-14T10:59:56.068Z,3.20
2022-08-14T11:02:45.017Z,4.20
2022-08-14T11:05:18.457Z,3.90
2022-08-14T11:07:50.915Z,3.55
2022-08-14T11:10:38.327Z,3.97
2022-08-14T11:13:05.000Z,3.90
2022-08-14T11:15:32.661Z,3.90
2022-08-14T11:18:01.443Z,4.03
2022-08-14T11:20:30.004Z,3.70
2022-08-14T11:23:00.897Z,4.28
2022-08-14T11:25:36.859Z,4.00
2022-08-14T11:28:18.595Z,4.30
2022-08-14T11:30:53.654Z,3.70
2022-08-14T11:33:29.369Z,3.33
2022-08-14T11:36:01.757Z,3.90
2022-08-14T11:38:35.739Z,3.83
2022-08-14T11:41:05.469Z,3.92
2022-08-14T11:43:41.757Z,3.80
2022-08-14T11:46:17.805Z,3.72
2022-08-14T11:49:04.361Z,4.00
2022-08-14T11:51:35.931Z,3.85
2022-08-14T11:54:05.552Z,3.65
2022-08-14T11:56:36.731Z,3.65
2022-08-14T11:59:06.054Z,4.03
2022-08-14T12:01:38.048Z,3.70
2022-08-14T12:04:31.931Z,3.60
2022-08-14T12:07:00.717Z,3.88
2022-08-14T12:09:52.859Z,4.03
2022-08-14T12:12:34.919Z,3.75
2022-08-14T12:15:03.945Z,3.80
2022-08-14T12:17:47.318Z,3.25
2022-08-14T12:20:14.951Z,3.88
2022-08-14T12:22:44.066Z,3.70
2022-08-14T12:25:18.779Z,3.33
2022-08-14T12:27:53.514Z,4.00
2022-08-14T12:30:43.011Z,3.53
2022-08-14T12:33:25.489Z,3.55
2022-08-14T12:35:57.644Z,3.40
2022-08-14T12:38:41.296Z,3.72
2022-08-14T12:41:20.700Z,3.55
2022-08-14T12:43:59.705Z,3.53
2022-08-14T12:46:27.243Z,3.50
2022-08-14T12:48:56.441Z,3.30
2022-08-14T12:51:27.318Z,3.42
2022-08-14T12:53:59.314Z,3.30
2022-08-14T12:56:32.905Z,3.50
2022-08-14T12:59:01.404Z,3.17
2022-08-14T13:01:30.941Z,3.38
2022-08-14T13:04:15.866Z,3.42
2022-08-14T13:06:50.682Z,3.20
2022-08-14T13:09:19.915Z,3.30
2022-08-14T13:11:58.381Z,3.28
2022-08-14T13:14:29.762Z,3.78
2022-08-14T13:16:58.796Z,3.33
2022-08-14T13:19:28.243Z,4.10
2022-08-14T13:22:05.282Z,3.70
2022-08-14T13:24:33.945Z,2.90
2022-08-14T13:27:04.159Z,3.05
2022-08-14T13:29:37.729Z,2.95
2022-08-14T13:32:09.170Z,3.30
2022-08-14T13:34:36.678Z,3.08
2022-08-14T13:37:07.013Z,3.15
2022-08-14T13:39:36.200Z,2.97
2022-08-14T13:47:04.396Z,3.10
2022-08-14T13:49:30.770Z,2.75
2022-08-14T13:52:01.872Z,3.20
2022-08-14T13:54:34.171Z,2.92
2022-08-14T13:57:03.402Z,2.83
2022-08-14T13:59:38.137Z,3.05
2022-08-14T14:02:07.897Z,3.30
2022-08-14T14:04:39.712Z,3.00
2022-08-14T14:07:11.415Z,3.45
2022-08-14T14:09:52.582Z,2.83
2022-08-14T14:12:37.768Z,2.80
2022-08-14T14:15:09.501Z,2.80
2022-08-14T14:17:38.935Z,2.90
2022-08-14T14:20:11.261Z,2.85
2022-08-14T14:23:02.204Z,2.92
2022-08-14T14:25:46.351Z,3.13
2022-08-14T14:28:16.739Z,3.33
2022-08-14T14:30:54.717Z,3.13
2022-08-14T14:33:45.338Z,3.30
2022-08-14T14:36:13.767Z,3.45
2022-08-14T14:38:44.098Z,3.17
2022-08-14T14:41:15.083Z,3.50
2022-08-14T14:43:44.790Z,3.35
2022-08-14T14:46:14.391Z,3.40
2022-08-14T14:48:53.926Z,3.53
2022-08-14T14:51:21.715Z,3.10
2022-08-14T14:53:48.144Z,3.35
2022-08-14T14:56:47.246Z,2.88
2022-08-14T14:59:01.644Z,3.08
2022-08-14T15:01:28.727Z,2.88
2022-08-14T15:03:55.473Z,3.22
2022-08-14T15:06:30.345Z,2.60
2022-08-14T15:09:01.754Z,2.65
2022-08-14T15:11:32.172Z,2.95
2022-08-14T15:13:59.161Z,2.78
2022-08-14T15:16:27.642Z,2.75
2022-08-14T15:18:54.098Z,2.85
2022-08-14T15:21:21.247Z,2.83
2022-08-14T15:23:50.515Z,2.60
2022-08-14T15:26:23.799Z,2.90
2022-08-14T15:29:02.116Z,3.03
2022-08-14T15:31:29.911Z,2.65
2022-08-14T15:34:43.134Z,3.78
2022-08-14T15:36:58.478Z,2.83
2022-08-14T15:39:25.868Z,2.90
2022-08-14T15:41:58.005Z,2.80
2022-08-14T15:44:25.741Z,2.75
2022-08-14T15:46:53.706Z,2.70
2022-08-14T15:49:20.617Z,3.00
2022-08-14T15:51:47.869Z,2.80
2022-08-14T15:54:17.606Z,3.22
2022-08-14T15:57:08.624Z,3.10
2022-08-14T15:59:55.356Z,2.90
2022-08-14T16:02:24.529Z,2.83
2022-08-14T16:04:54.510Z,3.38
2022-08-14T16:07:22.259Z,3.40
2022-08-14T16:10:11.824Z,3.10
2022-08-14T16:12:46.141Z,3.20
2022-08-14T16:15:15.857Z,2.90
2022-08-14T16:17:44.925Z,3.10
2022-08-14T16:20:12.501Z,3.95
2022-08-14T16:23:11.507Z,3.90
2022-08-14T16:25:42.139Z,3.47
2022-08-14T16:28:09.599Z,3.33
2022-08-14T16:30:36.038Z,3.28
2022-08-14T16:33:05.534Z,3.28
2022-08-14T16:35:42.386Z,3.58
2022-08-14T16:38:29.327Z,3.40
2022-08-14T16:41:18.247Z,3.58
2022-08-14T16:43:52.117Z,3.20
2022-08-14T16:46:22.288Z,3.28
2022-08-14T16:48:57.902Z,3.40
2022-08-14T16:51:26.032Z,3.35
2022-08-14T16:53:56.373Z,3.63
2022-08-14T16:56:25.483Z,3.10
2022-08-14T16:59:16.569Z,3.22
2022-08-14T17:01:58.303Z,3.30
2022-08-14T17:04:30.318Z,3.60
2022-08-14T17:07:03.695Z,3.20
2022-08-14T17:09:31.132Z,3.33
2022-08-14T17:12:07.518Z,3.60
2022-08-14T17:15:11.107Z,3.55
2022-08-14T17:17:42.569Z,3.55
2022-08-14T17:20:54.076Z,3.25
2022-08-14T17:23:10.743Z,3.40
2022-08-14T17:25:39.095Z,3.38
2022-08-14T17:28:49.940Z,3.53
2022-08-14T17:31:02.603Z,3.95
2022-08-14T17:33:33.392Z,5.07
2022-08-14T17:36:23.140Z,5.95
2022-08-14T17:39:02.722Z,5.10
2022-08-14T17:41:37.618Z,3.97
2022-08-14T17:44:21.409Z,3.85
2022-08-14T17:47:07.265Z,4.00
2022-08-14T17:49:43.801Z,3.50
2022-08-14T17:52:17.188Z,3.80
2022-08-14T17:54:52.900Z,3.90
2022-08-14T17:59:56.289Z,3.80
2022-08-14T18:02:30.993Z,3.92
2022-08-14T18:05:03.049Z,3.92
2022-08-14T18:07:59.524Z,4.03
2022-08-14T18:10:53.068Z,4.20
2022-08-14T18:13:07.890Z,3.72
2022-08-14T18:15:39.102Z,3.40
2022-08-14T18:18:11.264Z,3.58
2022-08-14T18:21:41.648Z,3.67
2022-08-14T18:23:26.903Z,3.63
2022-08-14T18:25:57.172Z,3.78
2022-08-14T18:28:48.281Z,3.50
2022-08-14T18:31:21.394Z,3.60
2022-08-14T18:33:54.512Z,3.67
2022-08-14T18:36:48.135Z,4.00
2022-08-14T18:39:26.543Z,3.47
2022-08-14T18:41:58.340Z,4.00
2022-08-14T18:47:14.808Z,3.67
2022-08-14T18:52:29.645Z,3.78
2022-08-14T18:54:58.940Z,3.42
2022-08-14T18:57:27.055Z,3.63
2022-08-14T19:00:33.005Z,3.80
2022-08-14T19:03:01.514Z,3.20
2022-08-14T19:05:37.482Z,3.83
2022-08-14T19:08:24.884Z,3.78
2022-08-14T19:11:01.656Z,3.25
2022-08-14T19:13:48.438Z,3.75
2022-08-14T19:16:23.057Z,3.47
2022-08-14T19:19:00.553Z,3.53
2022-08-14T19:21:34.767Z,3.90
2022-08-14T19:24:43.935Z,3.65
2022-08-14T19:27:19.488Z,3.50
2022-08-14T19:29:51.386Z,3.65
2022-08-14T19:32:36.718Z,3.53
2022-08-14T19:35:17.270Z,3.50
2022-08-14T19:40:39.168Z,4.00
2022-08-14T19:43:09.281Z,4.07
2022-08-14T19:45:38.317Z,4.10
2022-08-14T19:48:13.059Z,3.85
2022-08-14T19:50:44.407Z,4.18
2022-08-14T19:53:17.087Z,3.63
2022-08-14T19:55:56.694Z,4.00
2022-08-14T19:58:27.997Z,3.58
2022-08-14T20:00:57.042Z,3.90
2022-08-14T20:03:24.869Z,3.55
2022-08-14T20:06:03.049Z,3.80
2022-08-14T20:11:02.481Z,3.40
2022-08-14T20:12:00.388Z,3.88
2022-08-14T20:14:28.258Z,3.50
2022-08-14T20:17:03.281Z,3.63
2022-08-14T20:19:37.216Z,3.95
2022-08-14T20:22:36.749Z,3.80
2022-08-14T20:24:54.066Z,4.00
2022-08-14T20:27:38.787Z,4.40
2022-08-14T20:30:28.922Z,3.80
2022-08-14T20:32:59.471Z,3.90
2022-08-14T20:35:35.194Z,4.05
2022-08-14T20:38:30.391Z,4.05
2022-08-14T20:41:09.811Z,3.95
2022-08-14T20:46:38.372Z,4.53
2022-08-14T20:49:10.931Z,3.63
2022-08-14T20:51:54.493Z,3.92
2022-08-14T20:54:34.475Z,4.20
2022-08-14T20:57:11.303Z,3.70
2022-08-14T20:59:44.512Z,4.22
2022-08-14T21:02:38.655Z,4.43
2022-08-14T21:05:16.278Z,3.85
2022-08-14T21:07:44.395Z,4.00
2022-08-14T21:10:33.182Z,4.63
2022-08-14T21:13:26.639Z,4.28
2022-08-14T21:15:57.154Z,4.50
2022-08-14T21:18:32.466Z,4.28
2022-08-14T21:21:06.981Z,4.60
2022-08-14T21:23:37.169Z,4.65
2022-08-14T21:26:52.025Z,4.70
2022-08-14T21:29:11.135Z,4.28
2022-08-14T21:31:38.796Z,4.55
2022-08-14T21:34:30.884Z,4.82
2022-08-14T21:36:54.435Z,4.65
2022-08-14T21:39:24.119Z,5.63
2022-08-14T21:41:58.751Z,5.88
2022-08-14T21:44:43.152Z,4.93
2022-08-14T21:47:12.687Z,5.10
2022-08-14T21:49:40.253Z,5.13
2022-08-14T21:52:50.715Z,4.30
2022-08-14T21:55:09.638Z,4.70
2022-08-14T21:58:38.394Z,5.20
2022-08-14T22:00:34.780Z,5.35
2022-08-14T22:03:06.276Z,5.25
2022-08-14T22:05:38.578Z,5.47
2022-08-14T22:08:07.175Z,5.72
2022-08-14T22:10:35.113Z,4.68
2022-08-14T22:13:02.015Z,5.30
2022-08-14T22:15:30.132Z,4.80
2022-08-14T22:17:58.375Z,5.20
2022-08-14T22:20:28.207Z,4.78
2022-08-14T22:22:57.665Z,4.80
2022-08-14T22:25:34.042Z,4.40
2022-08-14T22:28:05.902Z,4.68
2022-08-14T22:30:33.600Z,4.38
2022-08-14T22:33:00.609Z,4.35
2022-08-14T22:35:27.942Z,4.70
2022-08-14T22:38:36.623Z,4.07
2022-08-14T22:41:03.655Z,4.72
2022-08-14T22:43:31.680Z,4.10
2022-08-14T22:46:02.452Z,4.15
2022-08-14T22:48:29.607Z,4.07
2022-08-14T22:50:56.263Z,4.32
2022-08-14T22:53:24.126Z,4.60
2022-08-14T22:55:56.561Z,4.30
2022-08-14T22:58:31.360Z,3.92
2022-08-14T23:01:01.633Z,4.30
2022-08-14T23:03:34.048Z,4.45
2022-08-14T23:06:01.979Z,4.18
2022-08-14T23:08:58.889Z,4.20
2022-08-14T23:11:15.255Z,4.25
2022-08-14T23:13:43.545Z,4.07
2022-08-14T23:16:20.102Z,4.03
2022-08-14T23:18:54.034Z,3.88
2022-08-14T23:21:24.586Z,4.03
2022-08-14T23:23:54.792Z,4.03
2022-08-14T23:26:48.523Z,4.40
2022-08-14T23:29:11.205Z,4.13
2022-08-14T23:31:38.359Z,4.60
2022-08-14T23:34:08.471Z,4.00
2022-08-14T23:36:53.706Z,4.10
2022-08-14T23:39:30.236Z,4.13
2022-08-14T23:42:02.570Z,4.03
2022-08-14T23:44:35.200Z,4.22
2022-08-14T23:47:05.639Z,3.95
2022-08-14T23:50:01.149Z,4.03
2022-08-14T23:52:55.680Z,3.95
2022-08-14T23:55:11.710Z,3.60
2022-08-14T23:57:43.945Z,4.20
